Terminal Aerodrome Forecast
Issued by NWS Tampa Bay Area, FL

Home | Current Version | Previous Version | Text Only | Print | Product List | Glossary On
Versions: 1 2 3 4 5 6 7 8 9 10 11 12
415
FTUS42 KTBW 301731
TAFSRQ
TAF
KSRQ 301731Z 3018/0118 15008KT P6SM FEW040 BKN250
     FM301900 24010KT P6SM SCT045 SCT250
     FM010200 11005KT P6SM FEW050 SCT250
     FM011400 14008KT P6SM FEW030 SCT250=

USA.gov is the U.S. government's official web portal to all federal, state and local government web resources and services.